createdAt,value
2023-05-17T00:00:01.707Z,3.95
2023-05-17T00:02:30.747Z,4.00
2023-05-17T00:04:59.164Z,4.10
2023-05-17T00:07:27.548Z,3.67
2023-05-17T00:09:55.933Z,4.05
2023-05-17T00:12:24.271Z,4.18
2023-05-17T00:14:53.561Z,3.75
2023-05-17T00:17:21.859Z,3.55
2023-05-17T00:19:50.218Z,3.55
2023-05-17T00:22:18.531Z,2.90
2023-05-17T00:24:46.785Z,3.10
2023-05-17T00:27:15.306Z,2.85
2023-05-17T00:29:43.921Z,2.85
2023-05-17T00:32:12.761Z,2.55
2023-05-17T00:34:41.030Z,2.13
2023-05-17T00:37:09.347Z,1.30
2023-05-17T00:39:37.564Z,1.27
2023-05-17T00:42:06.164Z,1.85
2023-05-17T00:44:34.448Z,1.77
2023-05-17T00:47:03.221Z,1.52
2023-05-17T00:49:31.658Z,1.63
2023-05-17T00:52:00.173Z,1.83
2023-05-17T00:54:28.775Z,1.67
2023-05-17T00:56:57.958Z,1.65
2023-05-17T00:59:28.092Z,1.40
2023-05-17T01:01:58.159Z,1.60
2023-05-17T01:04:26.556Z,1.80
2023-05-17T01:06:55.056Z,1.40
2023-05-17T01:09:23.384Z,2.15
2023-05-17T01:12:07.296Z,1.70
2023-05-17T01:14:58.624Z,3.15
2023-05-17T01:17:50.588Z,4.30
2023-05-17T01:20:34.318Z,4.13
2023-05-17T01:23:21.146Z,4.22
2023-05-17T01:26:19.528Z,4.55
2023-05-17T01:28:52.558Z,5.78
2023-05-17T01:31:22.273Z,5.07
2023-05-17T01:33:50.923Z,5.63
2023-05-17T01:36:20.533Z,5.00
2023-05-17T01:38:48.771Z,6.00
2023-05-17T01:41:43.427Z,6.00
2023-05-17T01:44:20.685Z,6.22
2023-05-17T01:46:55.900Z,7.03
2023-05-17T01:49:32.740Z,7.10
2023-05-17T01:52:13.035Z,6.07
2023-05-17T01:55:16.256Z,5.20
2023-05-17T01:57:48.926Z,5.13
2023-05-17T02:00:18.307Z,4.88
2023-05-17T02:02:47.648Z,5.03
2023-05-17T02:05:16.183Z,5.35
2023-05-17T02:07:44.505Z,5.00
2023-05-17T02:10:13.118Z,5.88
2023-05-17T02:12:44.363Z,6.60
2023-05-17T02:15:13.945Z,6.47
2023-05-17T02:17:42.586Z,6.13
2023-05-17T02:20:12.043Z,7.05
2023-05-17T02:22:40.862Z,6.70
2023-05-17T02:25:09.643Z,5.18
2023-05-17T02:27:38.009Z,5.85
2023-05-17T02:30:07.047Z,6.05
2023-05-17T02:32:35.603Z,5.03
2023-05-17T02:35:04.230Z,5.72
2023-05-17T02:37:32.539Z,6.57
2023-05-17T02:40:00.825Z,6.72
2023-05-17T02:42:29.119Z,6.78
2023-05-17T02:44:58.135Z,7.45
2023-05-17T02:47:26.503Z,8.85
2023-05-17T02:49:54.837Z,8.73
2023-05-17T02:52:23.119Z,6.78
2023-05-17T02:54:51.788Z,6.38
2023-05-17T02:57:20.376Z,9.30
2023-05-17T02:59:48.890Z,8.88
2023-05-17T03:02:17.597Z,8.70
2023-05-17T03:04:46.116Z,9.10
2023-05-17T03:07:14.538Z,9.65
2023-05-17T03:09:43.917Z,10.93
2023-05-17T03:12:12.274Z,10.20
2023-05-17T03:14:41.177Z,10.38
2023-05-17T03:17:11.089Z,9.35
2023-05-17T03:19:41.108Z,8.63
2023-05-17T03:22:09.623Z,9.77
2023-05-17T03:24:38.251Z,9.70
2023-05-17T03:27:07.205Z,10.68
2023-05-17T03:29:37.066Z,10.30
2023-05-17T03:32:06.734Z,11.60
2023-05-17T03:34:35.109Z,11.23
2023-05-17T03:37:03.434Z,11.90
2023-05-17T03:39:31.782Z,12.18
2023-05-17T03:42:00.218Z,12.30
2023-05-17T03:44:31.585Z,11.25
2023-05-17T03:46:59.883Z,8.35
2023-05-17T03:49:28.474Z,6.38
2023-05-17T03:51:57.248Z,6.20
2023-05-17T03:54:25.615Z,6.65
2023-05-17T03:56:53.939Z,7.75
2023-05-17T03:59:22.352Z,8.45
2023-05-17T04:01:50.776Z,7.15
2023-05-17T04:04:19.005Z,6.28
2023-05-17T04:06:47.566Z,5.55
2023-05-17T04:09:17.090Z,6.20
2023-05-17T04:11:45.409Z,6.00
2023-05-17T04:14:13.768Z,6.35
2023-05-17T04:16:42.117Z,6.13
2023-05-17T04:19:11.220Z,6.50
2023-05-17T04:21:40.971Z,6.07
2023-05-17T04:24:09.737Z,6.50
2023-05-17T04:26:38.066Z,6.38
2023-05-17T04:29:06.964Z,5.85
2023-05-17T04:31:35.477Z,6.20
2023-05-17T04:34:03.816Z,5.90
2023-05-17T04:36:32.387Z,6.68
2023-05-17T04:39:05.557Z,7.25
2023-05-17T04:41:33.998Z,6.95
2023-05-17T04:44:04.289Z,7.93
2023-05-17T04:46:37.344Z,7.07
2023-05-17T04:49:06.051Z,8.63
2023-05-17T04:51:34.980Z,8.27
2023-05-17T04:54:06.981Z,8.07
2023-05-17T04:56:36.629Z,7.45
2023-05-17T04:59:08.143Z,9.45
2023-05-17T05:01:37.054Z,10.55
2023-05-17T05:04:07.010Z,11.68
2023-05-17T05:09:09.878Z,11.82
2023-05-17T05:11:40.460Z,10.63
2023-05-17T05:14:08.806Z,12.27
2023-05-17T05:16:37.312Z,11.05
2023-05-17T05:19:06.899Z,10.15
2023-05-17T05:21:35.724Z,8.82
2023-05-17T05:24:04.417Z,6.90
2023-05-17T05:26:33.052Z,5.75
2023-05-17T05:29:04.221Z,5.30
2023-05-17T05:31:32.678Z,3.58
2023-05-17T05:34:03.510Z,3.30
2023-05-17T05:36:32.057Z,2.95
2023-05-17T05:39:02.826Z,2.45
2023-05-17T05:41:33.421Z,2.42
2023-05-17T05:44:01.768Z,2.50
2023-05-17T05:46:30.777Z,2.70
2023-05-17T05:49:00.029Z,2.60
2023-05-17T05:51:29.628Z,2.30
2023-05-17T05:53:58.593Z,2.50
2023-05-17T05:56:28.149Z,2.05
2023-05-17T05:58:57.676Z,2.22
2023-05-17T06:01:26.699Z,1.85
2023-05-17T06:03:55.047Z,1.90
2023-05-17T06:06:23.539Z,2.42
2023-05-17T06:08:52.045Z,1.85
2023-05-17T06:11:20.834Z,3.10
2023-05-17T06:13:51.586Z,2.58
2023-05-17T06:16:19.957Z,5.38
2023-05-17T06:18:51.062Z,6.75
2023-05-17T06:21:19.727Z,6.90
2023-05-17T06:23:48.952Z,9.48
2023-05-17T06:26:17.306Z,10.00
2023-05-17T06:28:46.117Z,10.27
2023-05-17T06:31:14.336Z,10.30
2023-05-17T06:33:42.723Z,11.27
2023-05-17T06:36:11.121Z,11.82
2023-05-17T06:38:39.487Z,10.10
2023-05-17T06:41:07.732Z,10.23
2023-05-17T06:43:37.699Z,13.43
2023-05-17T06:46:06.211Z,13.18
2023-05-17T06:48:34.570Z,14.35
2023-05-17T06:51:03.047Z,15.07
2023-05-17T06:53:31.416Z,13.00
2023-05-17T06:55:59.743Z,13.43
2023-05-17T06:58:28.143Z,13.50
2023-05-17T07:00:57.432Z,14.00
2023-05-17T07:03:26.546Z,14.10
2023-05-17T07:05:54.920Z,13.90
2023-05-17T07:08:23.167Z,12.98
2023-05-17T07:10:54.924Z,12.48
2023-05-17T07:13:23.409Z,12.35
2023-05-17T07:15:51.842Z,11.95
2023-05-17T07:18:20.248Z,12.82
2023-05-17T07:20:48.616Z,12.00
2023-05-17T07:23:16.931Z,11.15
2023-05-17T07:25:46.485Z,11.20
2023-05-17T07:28:14.838Z,11.13
2023-05-17T07:30:43.256Z,11.10
2023-05-17T07:33:11.682Z,11.20
2023-05-17T07:35:40.002Z,9.63
2023-05-17T07:38:08.300Z,10.93
2023-05-17T07:40:36.594Z,10.52
2023-05-17T07:43:04.855Z,10.70
2023-05-17T07:45:33.242Z,10.65
2023-05-17T07:48:01.697Z,10.70
2023-05-17T07:50:30.509Z,12.00
2023-05-17T07:52:58.757Z,10.65
2023-05-17T07:55:27.226Z,11.30
2023-05-17T07:57:55.620Z,11.73
2023-05-17T08:00:24.437Z,11.50
2023-05-17T08:02:52.781Z,10.63
2023-05-17T08:05:21.501Z,12.07
2023-05-17T08:07:49.743Z,11.48
2023-05-17T08:10:18.081Z,11.82
2023-05-17T08:12:46.790Z,11.98
2023-05-17T08:15:15.097Z,12.70
2023-05-17T08:17:43.478Z,10.20
2023-05-17T08:20:12.240Z,11.10
2023-05-17T08:22:41.320Z,9.88
2023-05-17T08:25:10.021Z,10.30
2023-05-17T08:27:39.115Z,10.07
2023-05-17T08:30:11.639Z,9.25
2023-05-17T08:32:45.035Z,10.70
2023-05-17T08:35:13.590Z,10.70
2023-05-17T08:37:43.013Z,10.23
2023-05-17T08:40:11.642Z,9.85
2023-05-17T08:42:40.975Z,9.27
2023-05-17T08:45:11.216Z,10.15
2023-05-17T08:47:42.459Z,9.90
2023-05-17T08:50:12.998Z,10.20
2023-05-17T08:52:44.846Z,10.02
2023-05-17T08:55:16.687Z,10.55
2023-05-17T08:57:47.106Z,10.30
2023-05-17T09:00:19.718Z,10.27
2023-05-17T09:02:48.712Z,10.80
2023-05-17T09:05:17.417Z,10.02
2023-05-17T09:07:47.755Z,10.82
2023-05-17T09:10:16.065Z,9.38
2023-05-17T09:12:45.020Z,8.70
2023-05-17T09:15:19.081Z,8.93
2023-05-17T09:17:55.419Z,8.40
2023-05-17T09:20:36.811Z,9.63
2023-05-17T09:23:10.295Z,8.13
2023-05-17T09:25:38.950Z,8.65
2023-05-17T09:28:07.914Z,8.63
2023-05-17T09:30:40.071Z,8.70
2023-05-17T09:33:11.145Z,7.82
2023-05-17T09:35:40.098Z,7.93
2023-05-17T09:38:13.375Z,8.63
2023-05-17T09:43:13.053Z,7.55
2023-05-17T09:45:41.454Z,7.90
2023-05-17T09:48:22.331Z,6.22
2023-05-17T09:50:52.263Z,6.05
2023-05-17T09:53:27.306Z,5.70
2023-05-17T09:55:58.770Z,6.00
2023-05-17T09:58:28.833Z,6.20
2023-05-17T10:01:01.914Z,5.78
2023-05-17T10:03:39.639Z,6.75
2023-05-17T10:06:13.417Z,5.68
2023-05-17T10:08:54.161Z,5.50
2023-05-17T10:11:35.050Z,5.80
2023-05-17T10:14:18.697Z,6.40
2023-05-17T10:19:16.612Z,5.40
2023-05-17T10:21:45.354Z,4.90
2023-05-17T10:24:13.951Z,5.03
2023-05-17T10:26:42.852Z,4.20
2023-05-17T10:29:11.746Z,4.38
2023-05-17T10:31:43.513Z,4.50
2023-05-17T10:34:12.814Z,3.72
2023-05-17T10:36:43.445Z,3.95
2023-05-17T10:39:12.502Z,3.22
2023-05-17T10:41:44.424Z,3.10
2023-05-17T10:44:17.625Z,3.72
2023-05-17T10:47:04.036Z,2.97
2023-05-17T10:49:34.411Z,2.63
2023-05-17T10:52:16.860Z,2.13
2023-05-17T10:54:48.271Z,2.75
2023-05-17T10:57:49.243Z,2.70
2023-05-17T11:00:31.346Z,2.10
2023-05-17T11:03:14.027Z,2.75
2023-05-17T11:05:44.909Z,2.08
2023-05-17T11:08:22.507Z,2.65
2023-05-17T11:11:27.943Z,2.15
2023-05-17T11:13:58.108Z,2.25
2023-05-17T11:16:34.383Z,2.22
2023-05-17T11:19:12.039Z,1.75
2023-05-17T11:21:47.965Z,1.90
2023-05-17T11:24:28.385Z,2.15
2023-05-17T11:27:00.410Z,1.80
2023-05-17T11:29:31.955Z,1.67
2023-05-17T11:32:05.829Z,2.17
2023-05-17T11:34:34.649Z,1.85
2023-05-17T11:37:04.931Z,1.85
2023-05-17T11:39:33.324Z,1.30
2023-05-17T11:42:01.994Z,1.33
2023-05-17T11:44:32.113Z,1.35
2023-05-17T11:47:11.580Z,1.20
2023-05-17T11:49:41.222Z,1.42
2023-05-17T11:52:09.745Z,0.80
2023-05-17T11:54:40.359Z,1.10
2023-05-17T11:57:11.306Z,0.80
2023-05-17T11:59:40.322Z,1.02
2023-05-17T12:02:09.158Z,0.30
2023-05-17T12:04:39.278Z,0.50
2023-05-17T12:07:11.218Z,0.28
2023-05-17T12:09:40.777Z,0.22
2023-05-17T12:12:09.732Z,0.47
2023-05-17T12:14:38.372Z,0.40
2023-05-17T12:17:09.821Z,0.40
2023-05-17T12:19:38.383Z,0.20
2023-05-17T12:22:13.887Z,0.52
2023-05-17T12:24:43.184Z,0.20
2023-05-17T12:27:11.713Z,0.60
2023-05-17T12:29:40.763Z,0.40
2023-05-17T12:32:10.519Z,0.60
2023-05-17T12:34:39.472Z,1.13
2023-05-17T12:37:10.888Z,2.00
2023-05-17T12:39:40.464Z,1.40
2023-05-17T12:42:10.170Z,1.75
2023-05-17T12:44:39.155Z,1.33
2023-05-17T12:47:09.695Z,1.10
2023-05-17T12:49:51.730Z,1.00
2023-05-17T12:52:20.116Z,0.98
2023-05-17T12:54:50.436Z,1.40
2023-05-17T12:57:20.140Z,1.00
2023-05-17T12:59:50.207Z,0.63
2023-05-17T13:02:20.748Z,1.63
2023-05-17T13:04:49.488Z,1.08
2023-05-17T13:07:25.024Z,1.10
2023-05-17T13:09:53.375Z,1.55
2023-05-17T13:12:23.626Z,1.13
2023-05-17T13:14:53.725Z,0.90
2023-05-17T13:17:47.138Z,0.73
2023-05-17T13:20:16.203Z,0.95
2023-05-17T13:22:48.326Z,1.50
2023-05-17T13:25:16.960Z,1.45
2023-05-17T13:27:48.763Z,1.20
2023-05-17T13:30:17.617Z,1.15
2023-05-17T13:32:47.447Z,1.10
2023-05-17T13:35:16.201Z,1.30
2023-05-17T13:37:44.482Z,1.48
2023-05-17T13:40:13.352Z,1.20
2023-05-17T13:42:41.814Z,1.10
2023-05-17T13:45:11.778Z,0.98
2023-05-17T13:47:40.479Z,1.17
2023-05-17T13:50:09.777Z,1.00
2023-05-17T13:52:38.099Z,0.80
2023-05-17T13:55:07.398Z,0.98
2023-05-17T13:57:35.717Z,0.80
2023-05-17T14:00:05.354Z,0.60
2023-05-17T14:02:34.086Z,0.60
2023-05-17T14:05:02.486Z,0.30
2023-05-17T14:07:30.754Z,1.00
2023-05-17T14:09:59.112Z,1.58
2023-05-17T14:12:27.583Z,0.50
2023-05-17T14:14:56.032Z,0.90
2023-05-17T14:17:26.949Z,0.77
2023-05-17T14:19:55.325Z,1.00
2023-05-17T14:22:23.689Z,0.68
2023-05-17T14:24:51.997Z,0.90
2023-05-17T14:27:20.813Z,1.50
2023-05-17T14:29:49.101Z,1.00
2023-05-17T14:32:17.464Z,0.80
2023-05-17T14:34:46.053Z,0.80
2023-05-17T14:37:14.993Z,0.73
2023-05-17T14:39:49.442Z,0.93
2023-05-17T14:42:27.725Z,0.50
2023-05-17T14:44:56.142Z,0.70
2023-05-17T14:47:24.533Z,0.63
2023-05-17T14:49:52.811Z,0.80
2023-05-17T14:52:21.054Z,0.90
2023-05-17T14:54:49.446Z,0.80
2023-05-17T14:57:22.679Z,0.95
2023-05-17T14:59:51.098Z,1.10
2023-05-17T15:02:19.641Z,0.60
2023-05-17T15:04:48.197Z,0.98
2023-05-17T15:07:16.923Z,0.77
2023-05-17T15:09:46.070Z,0.80
2023-05-17T15:12:14.476Z,1.10
2023-05-17T15:14:43.473Z,0.85
2023-05-17T15:17:11.862Z,0.90
2023-05-17T15:19:40.340Z,0.80
2023-05-17T15:22:11.661Z,1.00
2023-05-17T15:24:40.679Z,0.80
2023-05-17T15:27:09.206Z,1.02
2023-05-17T15:29:40.210Z,1.27
2023-05-17T15:32:09.681Z,1.13
2023-05-17T15:34:39.754Z,0.77
2023-05-17T15:37:19.134Z,1.17
2023-05-17T15:39:47.887Z,0.75
2023-05-17T15:42:16.415Z,0.80
2023-05-17T15:44:44.702Z,0.70
2023-05-17T15:47:13.291Z,0.70
2023-05-17T15:49:42.534Z,0.80
2023-05-17T15:52:12.800Z,0.50
2023-05-17T15:54:42.401Z,0.40
2023-05-17T15:57:10.794Z,0.85
2023-05-17T15:59:39.414Z,1.23
2023-05-17T16:02:07.669Z,0.40
2023-05-17T16:04:36.118Z,0.47
2023-05-17T16:07:04.809Z,0.80
2023-05-17T16:09:33.548Z,0.43
2023-05-17T16:12:01.945Z,0.30
2023-05-17T16:14:30.464Z,0.63
2023-05-17T16:17:03.780Z,0.82
2023-05-17T16:19:34.126Z,0.95
2023-05-17T16:22:03.139Z,0.85
2023-05-17T16:24:31.839Z,1.20
2023-05-17T16:27:04.270Z,1.00
2023-05-17T16:29:39.820Z,0.63
2023-05-17T16:32:08.765Z,0.77
2023-05-17T16:34:37.360Z,0.80
2023-05-17T16:37:05.729Z,0.70
2023-05-17T16:39:34.035Z,0.52
2023-05-17T16:42:02.607Z,0.63
2023-05-17T16:44:31.080Z,0.73
2023-05-17T16:47:00.534Z,0.80
2023-05-17T16:49:30.241Z,0.88
2023-05-17T16:51:58.617Z,0.90
2023-05-17T16:54:28.296Z,0.75
2023-05-17T16:56:57.289Z,0.80
2023-05-17T16:59:25.759Z,0.75
2023-05-17T17:01:54.252Z,0.80
2023-05-17T17:04:22.816Z,0.57
2023-05-17T17:06:52.093Z,0.50
2023-05-17T17:09:20.643Z,0.70
2023-05-17T17:11:49.081Z,0.63
2023-05-17T17:14:17.764Z,0.80
2023-05-17T17:16:46.085Z,0.75
2023-05-17T17:19:14.414Z,0.70
2023-05-17T17:21:43.771Z,0.47
2023-05-17T17:24:12.471Z,0.77
2023-05-17T17:26:40.773Z,0.77
2023-05-17T17:29:10.424Z,0.70
2023-05-17T17:31:39.047Z,0.85
2023-05-17T17:34:07.530Z,0.63
2023-05-17T17:36:35.800Z,0.80
2023-05-17T17:39:04.168Z,1.00
2023-05-17T17:41:33.585Z,0.73
2023-05-17T17:44:02.112Z,1.25
2023-05-17T17:46:30.747Z,1.10
2023-05-17T17:48:59.061Z,1.00
2023-05-17T17:51:27.361Z,1.65
2023-05-17T17:53:56.250Z,0.90
2023-05-17T17:56:25.895Z,0.88
2023-05-17T17:58:55.940Z,1.20
2023-05-17T18:01:24.572Z,0.85
2023-05-17T18:03:53.032Z,1.00
2023-05-17T18:06:21.468Z,1.10
2023-05-17T18:08:49.814Z,0.68
2023-05-17T18:11:18.236Z,0.80
2023-05-17T18:13:47.009Z,0.80
2023-05-17T18:16:15.428Z,0.82
2023-05-17T18:18:44.358Z,0.80
2023-05-17T18:21:12.817Z,0.60
2023-05-17T18:23:41.220Z,0.70
2023-05-17T18:26:09.569Z,1.00
2023-05-17T18:28:42.276Z,1.10
2023-05-17T18:31:11.799Z,0.70
2023-05-17T18:33:40.021Z,1.20
2023-05-17T18:36:08.417Z,0.77
2023-05-17T18:38:36.728Z,1.30
2023-05-17T18:41:05.209Z,0.90
2023-05-17T18:43:33.462Z,0.73
2023-05-17T18:46:01.753Z,1.10
2023-05-17T18:48:30.057Z,0.90
2023-05-17T18:50:59.901Z,1.13
2023-05-17T18:53:29.372Z,1.17
2023-05-17T18:56:01.557Z,1.10
2023-05-17T18:58:30.706Z,1.00
2023-05-17T19:01:00.230Z,0.98
2023-05-17T19:03:28.593Z,1.02
2023-05-17T19:05:56.953Z,1.02
2023-05-17T19:08:25.417Z,1.20
2023-05-17T19:10:53.722Z,1.52
2023-05-17T19:13:22.146Z,1.15
2023-05-17T19:15:50.558Z,1.27
2023-05-17T19:18:18.905Z,1.15
2023-05-17T19:20:47.315Z,1.92
2023-05-17T19:23:15.745Z,0.95
2023-05-17T19:25:44.106Z,1.00
2023-05-17T19:28:12.411Z,1.38
2023-05-17T19:30:40.832Z,1.35
2023-05-17T19:33:10.656Z,0.98
2023-05-17T19:35:42.401Z,1.00
2023-05-17T19:38:12.991Z,1.20
2023-05-17T19:40:46.516Z,1.23
2023-05-17T19:43:15.732Z,1.38
2023-05-17T19:45:44.704Z,1.35
2023-05-17T19:48:13.318Z,1.27
2023-05-17T19:50:41.899Z,1.10
2023-05-17T19:53:12.002Z,1.20
2023-05-17T19:55:41.220Z,1.05
2023-05-17T19:58:09.587Z,0.90
2023-05-17T20:00:40.105Z,1.58
2023-05-17T20:03:08.910Z,1.77
2023-05-17T20:05:37.449Z,1.10
2023-05-17T20:08:08.124Z,1.10
2023-05-17T20:10:37.088Z,0.88
2023-05-17T20:13:05.686Z,1.10
2023-05-17T20:15:34.715Z,1.10
2023-05-17T20:18:03.500Z,0.95
2023-05-17T20:20:32.298Z,0.93
2023-05-17T20:23:00.811Z,1.15
2023-05-17T20:25:29.161Z,1.02
2023-05-17T20:27:57.458Z,1.25
2023-05-17T20:30:26.251Z,0.70
2023-05-17T20:32:54.915Z,1.00
2023-05-17T20:35:23.298Z,1.00
2023-05-17T20:37:51.653Z,1.20
2023-05-17T20:40:20.430Z,1.23
2023-05-17T20:42:49.040Z,1.13
2023-05-17T20:45:17.838Z,1.27
2023-05-17T20:47:46.398Z,0.80
2023-05-17T20:50:15.524Z,1.00
2023-05-17T20:52:43.757Z,1.05
2023-05-17T20:55:12.066Z,1.20
2023-05-17T20:57:40.520Z,1.30
2023-05-17T21:00:11.842Z,1.23
2023-05-17T21:02:40.777Z,1.10
2023-05-17T21:05:10.916Z,1.15
2023-05-17T21:07:42.651Z,1.10
2023-05-17T21:10:11.149Z,1.38
2023-05-17T21:12:39.499Z,1.30
2023-05-17T21:17:56.599Z,1.40
2023-05-17T21:20:25.026Z,1.25
2023-05-17T21:22:53.476Z,1.00
2023-05-17T21:25:21.862Z,1.30
2023-05-17T21:27:51.401Z,1.40
2023-05-17T21:30:19.782Z,1.02
2023-05-17T21:32:48.158Z,1.30
2023-05-17T21:35:16.562Z,1.10
2023-05-17T21:37:44.898Z,0.80
2023-05-17T21:40:13.700Z,1.20
2023-05-17T21:42:42.184Z,1.00
2023-05-17T21:45:11.602Z,1.42
2023-05-17T21:47:39.885Z,1.35
2023-05-17T21:50:08.639Z,1.00
2023-05-17T21:52:37.678Z,1.48
2023-05-17T21:55:06.697Z,1.40
2023-05-17T21:57:36.633Z,1.05
2023-05-17T22:00:07.916Z,1.35
2023-05-17T22:02:36.451Z,1.30
2023-05-17T22:05:05.041Z,1.40
2023-05-17T22:07:33.742Z,1.50
2023-05-17T22:10:02.464Z,1.10
2023-05-17T22:12:30.853Z,1.40
2023-05-17T22:14:59.050Z,2.03
2023-05-17T22:17:34.997Z,1.52
2023-05-17T22:20:11.807Z,1.40
2023-05-17T22:22:40.139Z,1.55
2023-05-17T22:25:09.097Z,1.30
2023-05-17T22:27:37.385Z,1.58
2023-05-17T22:30:07.514Z,1.30
2023-05-17T22:32:37.482Z,1.33
2023-05-17T22:35:06.077Z,1.20
2023-05-17T22:37:34.444Z,1.30
2023-05-17T22:40:03.415Z,0.98
2023-05-17T22:42:31.699Z,1.30
2023-05-17T22:45:00.220Z,1.30
2023-05-17T22:47:28.509Z,1.35
2023-05-17T22:49:57.704Z,1.50
2023-05-17T22:52:26.446Z,1.27
2023-05-17T22:54:54.879Z,1.75
2023-05-17T22:57:23.136Z,1.38
2023-05-17T22:59:51.470Z,0.82
2023-05-17T23:02:19.869Z,1.20
2023-05-17T23:04:48.186Z,1.40
2023-05-17T23:07:16.488Z,1.52
2023-05-17T23:09:44.781Z,1.75
2023-05-17T23:12:14.134Z,1.23
2023-05-17T23:14:42.671Z,1.40
2023-05-17T23:17:12.052Z,1.25
2023-05-17T23:19:40.657Z,1.40
2023-05-17T23:22:10.766Z,1.40
2023-05-17T23:24:39.467Z,1.40
2023-05-17T23:27:10.368Z,1.30
2023-05-17T23:29:41.479Z,1.23
2023-05-17T23:32:09.833Z,1.20
2023-05-17T23:34:38.050Z,0.93
2023-05-17T23:37:06.651Z,0.98
2023-05-17T23:39:34.954Z,1.17
2023-05-17T23:42:03.263Z,0.70
2023-05-17T23:44:33.393Z,1.10
2023-05-17T23:47:01.731Z,0.40
2023-05-17T23:49:30.281Z,0.70
2023-05-17T23:51:58.635Z,0.43
2023-05-17T23:54:26.877Z,0.60
2023-05-17T23:56:55.144Z,1.00
2023-05-17T23:59:24.418Z,0.40
